Time;durP1;ratioP1;P1;durP2;ratioP2;P2;SDS_P1;SDS_P2;PMS_P1;PMS_P2;Temp;Humidity;BMP_temperature;BMP_pressure;BME280_temperature;BME280_humidity;BME280_pressure;Samples;Min_cycle;Max_cycle;Signal;HPM_P1;HPM_P2
2021/06/19 00:01:40;;;;;;;24.08;15.08;;;;;;;20.28;59.91;100285.38;126463;1093;22763;-77
2021/06/19 00:04:11;;;;;;;28.30;15.38;;;;;;;20.26;60.16;100285.16;126514;1093;22754;-77
2021/06/19 00:06:42;;;;;;;23.35;14.90;;;;;;;20.17;60.41;100281.41;126507;1093;22788;-77
2021/06/19 00:09:13;;;;;;;29.25;16.20;;;;;;;20.14;60.30;100287.41;126536;1093;22851;-77
2021/06/19 00:11:45;;;;;;;23.57;15.73;;;;;;;20.14;60.22;100282.50;126541;1093;26337;-77
2021/06/19 00:14:16;;;;;;;24.33;15.35;;;;;;;20.13;60.58;100289.47;126580;1093;22854;-77
2021/06/19 00:16:48;;;;;;;25.03;15.83;;;;;;;20.08;60.78;100287.52;126522;1093;26258;-77
2021/06/19 00:19:20;;;;;;;26.95;16.23;;;;;;;20.02;60.82;100283.26;126553;1093;22826;-77
2021/06/19 00:21:51;;;;;;;25.20;15.78;;;;;;;19.95;60.80;100287.50;126522;1093;22800;-77
2021/06/19 00:24:23;;;;;;;26.60;15.83;;;;;;;19.93;60.79;100295.01;126517;1092;22764;-77
2021/06/19 00:26:56;;;;;;;28.33;15.73;;;;;;;19.87;60.87;100295.12;126542;1093;22842;-77
2021/06/19 00:29:27;;;;;;;25.95;16.18;;;;;;;19.82;61.19;100290.30;126554;1093;22757;-77
2021/06/19 00:32:00;;;;;;;27.05;17.08;;;;;;;19.78;61.43;100284.20;126480;1093;22858;-77
2021/06/19 00:34:31;;;;;;;30.00;17.18;;;;;;;19.73;61.48;100287.13;126725;1093;22791;-77
2021/06/19 00:37:03;;;;;;;29.65;18.08;;;;;;;19.69;61.33;100286.69;126491;1093;28483;-77
2021/06/19 00:39:34;;;;;;;26.25;17.18;;;;;;;19.64;61.91;100287.54;126479;1093;22787;-77
2021/06/19 00:42:07;;;;;;;31.47;18.37;;;;;;;19.61;61.94;100283.74;126516;1093;22777;-77
2021/06/19 00:44:39;;;;;;;30.50;18.88;;;;;;;19.59;61.80;100296.91;126486;1093;22849;-76
2021/06/19 00:47:10;;;;;;;29.25;18.38;;;;;;;19.56;61.94;100300.81;126752;1093;22899;-77
2021/06/19 00:49:44;;;;;;;27.20;18.53;;;;;;;19.54;62.31;100294.92;126490;1093;25995;-77
2021/06/19 00:52:15;;;;;;;27.00;18.20;;;;;;;19.51;62.13;100298.85;126684;1093;24476;-77
2021/06/19 00:54:47;;;;;;;36.00;22.40;;;;;;;19.48;61.87;100297.08;126490;1093;22864;-77
2021/06/19 00:57:19;;;;;;;57.55;36.28;;;;;;;19.43;62.44;100295.13;126520;1092;22860;-77
2021/06/19 00:59:50;;;;;;;73.30;44.30;;;;;;;19.37;62.13;100295.19;126514;1093;25843;-77
2021/06/19 01:02:23;;;;;;;112.15;63.98;;;;;;;19.32;62.48;100293.20;126519;1093;22759;-77
2021/06/19 01:04:54;;;;;;;93.90;60.37;;;;;;;19.25;62.52;100294.59;126538;1093;22760;-78
2021/06/19 01:07:27;;;;;;;101.13;60.18;;;;;;;19.20;63.06;100294.68;126555;1093;27345;-77
2021/06/19 01:09:59;;;;;;;73.90;46.00;;;;;;;19.14;62.82;100294.00;126581;1093;22765;-77
2021/06/19 01:12:31;;;;;;;67.53;41.15;;;;;;;19.11;63.06;100289.41;126565;1093;22772;-77
2021/06/19 01:15:02;;;;;;;71.93;40.50;;;;;;;19.07;63.27;100294.61;126557;1093;24435;-78
2021/06/19 01:17:34;;;;;;;64.83;38.90;;;;;;;19.02;63.05;100292.61;126591;1093;22828;-77
2021/06/19 01:20:08;;;;;;;61.63;35.73;;;;;;;18.98;63.29;100300.64;126501;1093;22762;-77
2021/06/19 01:22:42;;;;;;;64.30;38.65;;;;;;;18.94;63.21;100298.13;126519;1093;22769;-77
2021/06/19 01:25:19;;;;;;;56.70;34.93;;;;;;;18.94;63.53;100289.64;126663;1093;26510;-77
2021/06/19 01:27:55;;;;;;;52.17;30.53;;;;;;;18.91;63.90;100296.36;126786;1093;22783;-77
2021/06/19 01:30:29;;;;;;;50.90;30.45;;;;;;;18.85;63.69;100292.11;126485;1092;23203;-77
2021/06/19 01:33:01;;;;;;;48.55;29.85;;;;;;;18.80;63.93;100292.94;126487;1092;22757;-77
2021/06/19 01:35:32;;;;;;;45.43;27.53;;;;;;;18.75;63.98;100303.02;126489;1093;26436;-77
2021/06/19 01:38:06;;;;;;;45.90;27.43;;;;;;;18.71;64.01;100301.78;126470;1093;23398;-77
2021/06/19 01:40:37;;;;;;;42.53;26.77;;;;;;;18.67;64.39;100302.09;126575;1093;25977;-76
2021/06/19 01:43:10;;;;;;;47.97;30.07;;;;;;;18.65;64.35;100307.52;126461;1092;22796;-77
2021/06/19 01:45:44;;;;;;;52.45;34.60;;;;;;;18.65;64.43;100306.75;126434;1093;22798;-77
2021/06/19 01:48:15;;;;;;;62.25;34.90;;;;;;;18.62;64.59;100308.61;126541;1093;22813;-76
2021/06/19 01:50:47;;;;;;;57.90;35.90;;;;;;;18.58;64.73;100305.29;126422;1092;22844;-77
2021/06/19 01:53:18;;;;;;;54.65;33.85;;;;;;;18.55;64.71;100312.80;126455;1093;23383;-76
2021/06/19 01:55:51;;;;;;;49.03;32.17;;;;;;;18.52;64.42;100301.77;126470;1093;22779;-77
2021/06/19 01:58:22;;;;;;;50.50;31.00;;;;;;;18.47;64.97;100306.22;126484;1092;22770;-77
2021/06/19 02:00:53;;;;;;;45.40;28.53;;;;;;;18.44;64.58;100301.61;126503;1093;26296;-77
2021/06/19 02:03:24;;;;;;;51.13;28.87;;;;;;;18.42;64.68;100300.58;126439;1092;22794;-76
2021/06/19 02:05:56;;;;;;;43.45;26.50;;;;;;;18.41;64.83;100302.66;126521;1093;22811;-77
2021/06/19 02:08:27;;;;;;;36.17;23.77;;;;;;;18.44;64.95;100306.49;126478;1093;22890;-77
2021/06/19 02:11:00;;;;;;;36.35;22.85;;;;;;;18.45;65.36;100305.98;126486;1093;22870;-76
2021/06/19 02:13:31;;;;;;;38.15;24.60;;;;;;;18.47;64.96;100309.05;126500;1092;22844;-77
2021/06/19 02:16:03;;;;;;;37.40;23.55;;;;;;;18.48;64.97;100304.13;126493;1093;23574;-77
2021/06/19 02:18:34;;;;;;;35.80;23.90;;;;;;;18.49;65.54;100297.97;126520;1093;24582;-77
2021/06/19 02:21:08;;;;;;;40.45;25.70;;;;;;;18.51;65.42;100298.20;126583;1093;22831;-77
2021/06/19 02:23:39;;;;;;;44.80;28.90;;;;;;;18.52;65.41;100304.59;126513;1092;22791;-76
2021/06/19 02:26:10;;;;;;;41.90;27.60;;;;;;;18.49;65.77;100309.27;126402;1093;22804;-77
2021/06/19 02:28:41;;;;;;;45.30;29.90;;;;;;;18.47;65.78;100306.22;126422;1093;22791;-76
2021/06/19 02:31:13;;;;;;;44.95;29.25;;;;;;;18.45;65.73;100305.98;126437;1093;27217;-77
2021/06/19 02:33:46;;;;;;;44.70;30.50;;;;;;;18.45;65.80;100303.16;126473;1093;22825;-77
2021/06/19 02:36:18;;;;;;;48.20;30.10;;;;;;;18.45;65.80;100300.33;126525;1093;26513;-76
2021/06/19 02:38:50;;;;;;;41.60;28.20;;;;;;;18.45;65.74;100293.91;126527;1093;27205;-77
2021/06/19 02:41:21;;;;;;;48.35;29.75;;;;;;;18.46;65.67;100303.90;126604;1093;24548;-77
2021/06/19 02:43:54;;;;;;;40.80;28.60;;;;;;;18.44;65.78;100310.09;126419;1093;23487;-76
2021/06/19 02:46:25;;;;;;;47.80;29.90;;;;;;;18.45;65.95;100310.86;126452;1093;27243;-77
2021/06/19 02:48:56;;;;;;;44.90;31.20;;;;;;;18.44;66.30;100300.84;126508;1093;27680;-76
2021/06/19 02:51:29;;;;;;;46.50;29.90;;;;;;;18.43;66.27;100296.47;126556;1093;22751;-77
2021/06/19 02:54:01;;;;;;;43.45;28.35;;;;;;;18.44;65.86;100298.02;126492;1093;26213;-76
2021/06/19 02:56:32;;;;;;;38.30;26.75;;;;;;;18.43;66.20;100300.09;126500;1092;22817;-76
2021/06/19 02:59:04;;;;;;;39.60;27.60;;;;;;;18.40;66.44;100301.12;126452;1093;22809;-76
2021/06/19 03:01:35;;;;;;;39.35;26.80;;;;;;;18.37;66.49;100301.42;126476;1093;22763;-77
2021/06/19 03:04:06;;;;;;;38.10;25.95;;;;;;;18.33;66.61;100298.88;126404;1091;23276;-77
2021/06/19 03:06:38;;;;;;;37.70;25.70;;;;;;;18.30;66.53;100299.95;126524;1093;23389;-77
2021/06/19 03:09:09;;;;;;;35.70;24.50;;;;;;;18.28;66.97;100302.55;126417;1093;23062;-77
2021/06/19 03:11:40;;;;;;;35.80;24.10;;;;;;;18.26;66.93;100310.80;126547;1093;22975;-77
2021/06/19 03:14:11;;;;;;;35.45;23.30;;;;;;;18.22;66.70;100304.67;126460;1092;25472;-77
2021/06/19 03:16:43;;;;;;;40.80;25.25;;;;;;;18.21;67.08;100303.13;126487;1093;24257;-78
2021/06/19 03:19:16;;;;;;;36.40;23.55;;;;;;;18.21;66.67;100302.36;126387;1093;22800;-77
2021/06/19 03:21:47;;;;;;;34.05;22.20;;;;;;;18.23;66.83;100291.31;126469;1093;25953;-77
2021/06/19 03:24:18;;;;;;;34.85;24.00;;;;;;;18.27;67.06;100295.35;126423;1093;22803;-77
2021/06/19 03:26:49;;;;;;;35.50;22.05;;;;;;;18.31;67.35;100295.08;126444;1093;22826;-77
2021/06/19 03:29:21;;;;;;;35.55;24.65;;;;;;;18.32;67.04;100297.36;126478;1093;24081;-77
2021/06/19 03:31:52;;;;;;;36.40;23.50;;;;;;;18.35;66.84;100296.28;126460;1093;22801;-77
2021/06/19 03:34:24;;;;;;;41.95;25.55;;;;;;;18.37;67.53;100290.86;126445;1092;22739;-76
2021/06/19 03:36:59;;;;;;;38.75;24.05;;;;;;;18.38;67.48;100281.09;126471;1093;25825;-77
2021/06/19 03:39:33;;;;;;;41.40;24.63;;;;;;;18.41;67.71;100284.93;126458;1092;26322;-77
2021/06/19 03:42:06;;;;;;;40.30;25.35;;;;;;;18.43;67.91;100280.31;126542;1093;22793;-76
2021/06/19 03:44:37;;;;;;;39.93;24.53;;;;;;;18.45;67.70;100282.59;126459;1093;22832;-77
2021/06/19 03:47:09;;;;;;;40.95;25.20;;;;;;;18.47;68.28;100286.42;126452;1093;22845;-76
2021/06/19 03:49:40;;;;;;;37.25;23.20;;;;;;;18.50;67.98;100293.83;126424;1093;22828;-77
2021/06/19 03:52:14;;;;;;;32.75;22.10;;;;;;;18.53;68.10;100294.83;126509;1092;26012;-77
2021/06/19 03:54:45;;;;;;;35.60;22.70;;;;;;;18.56;67.91;100288.86;126522;1093;24528;-77
2021/06/19 03:57:26;;;;;;;33.10;21.90;;;;;;;18.61;68.27;100289.33;126557;1093;27195;-77
2021/06/19 03:59:57;;;;;;;32.10;21.30;;;;;;;18.66;67.88;100291.33;126681;1093;22941;-77
2021/06/19 04:02:30;;;;;;;29.90;19.55;;;;;;;18.73;67.82;100288.64;126530;1093;23472;-77
2021/06/19 04:05:03;;;;;;;29.47;19.00;;;;;;;18.80;68.07;100290.11;126561;1093;25540;-77
2021/06/19 04:07:34;;;;;;;30.50;18.95;;;;;;;18.88;68.17;100291.02;126536;1093;22812;-77
2021/06/19 04:10:07;;;;;;;26.55;16.95;;;;;;;18.94;67.93;100291.70;126590;1092;22764;-77
2021/06/19 04:12:39;;;;;;;29.60;18.10;;;;;;;19.00;67.98;100293.16;126749;1093;22790;-77
2021/06/19 04:15:15;;;;;;;25.70;15.90;;;;;;;19.09;67.71;100289.95;126589;1092;22858;-77
2021/06/19 04:17:46;;;;;;;27.10;17.15;;;;;;;19.20;68.32;100297.52;126454;1093;22739;-77
2021/06/19 04:20:18;;;;;;;25.40;16.30;;;;;;;19.26;68.24;100298.19;126648;1093;23543;-76
2021/06/19 04:22:55;;;;;;;22.85;14.80;;;;;;;19.35;68.00;100298.57;126690;1092;24325;-77
2021/06/19 04:25:29;;;;;;;26.17;15.17;;;;;;;19.46;68.03;100294.80;126497;1093;22800;-77
2021/06/19 04:28:00;;;;;;;25.35;15.60;;;;;;;19.56;67.87;100295.14;126402;1092;22766;-77
2021/06/19 04:30:32;;;;;;;26.15;15.65;;;;;;;19.67;68.50;100287.24;126537;1093;22881;-76
2021/06/19 04:33:03;;;;;;;22.67;14.13;;;;;;;19.74;68.04;100289.42;126542;1093;23006;-76
2021/06/19 04:35:35;;;;;;;27.40;14.75;;;;;;;19.85;68.28;100292.06;126559;1093;22830;-76
2021/06/19 04:38:06;;;;;;;21.93;12.73;;;;;;;19.94;68.34;100294.48;126477;1091;22782;-77
2021/06/19 04:40:42;;;;;;;23.45;11.95;;;;;;;20.06;68.24;100292.97;126481;1093;24429;-77
2021/06/19 04:43:17;;;;;;;19.08;12.35;;;;;;;20.20;68.01;100302.27;126492;1093;22761;-76
2021/06/19 04:45:49;;;;;;;23.65;12.05;;;;;;;20.32;68.12;100294.31;126474;1093;22858;-77
2021/06/19 04:48:20;;;;;;;19.43;10.05;;;;;;;20.45;68.16;100300.73;126489;1092;22779;-77
2021/06/19 04:50:52;;;;;;;21.27;11.67;;;;;;;20.60;67.60;100298.11;126516;1092;26935;-77
2021/06/19 04:53:23;;;;;;;18.13;10.53;;;;;;;20.74;67.53;100293.94;126647;1093;22773;-78
2021/06/19 04:55:56;;;;;;;17.80;10.88;;;;;;;20.88;67.56;100301.10;126471;1093;22812;-78
2021/06/19 04:58:36;;;;;;;22.75;11.73;;;;;;;21.03;67.23;100294.10;126508;1092;22844;-76
2021/06/19 05:01:07;;;;;;;16.80;9.85;;;;;;;21.12;67.13;100297.25;126473;1092;22861;-76
2021/06/19 05:03:38;;;;;;;21.93;11.15;;;;;;;21.23;66.93;100301.91;126537;1093;25915;-76
2021/06/19 05:06:10;;;;;;;16.60;9.00;;;;;;;21.38;66.94;100291.46;126535;1092;22780;-76
2021/06/19 05:08:42;;;;;;;20.20;10.30;;;;;;;21.54;66.81;100313.00;126398;1093;22777;-77
2021/06/19 05:11:13;;;;;;;15.60;9.75;;;;;;;21.65;66.79;100312.74;126516;1093;22767;-77
2021/06/19 05:13:46;;;;;;;18.40;9.63;;;;;;;21.76;66.55;100311.70;126506;1092;22740;-77
2021/06/19 05:16:17;;;;;;;17.17;9.10;;;;;;;21.89;66.36;100319.42;126529;1092;22780;-77
2021/06/19 05:18:49;;;;;;;17.60;10.00;;;;;;;22.03;65.76;100312.32;126519;1093;22782;-77
2021/06/19 05:21:23;;;;;;;18.30;8.98;;;;;;;22.13;65.84;100316.18;126458;1093;22808;-77
2021/06/19 05:23:54;;;;;;;21.53;9.73;;;;;;;22.24;65.54;100305.25;126649;1093;22805;-77
2021/06/19 05:26:26;;;;;;;17.63;9.13;;;;;;;22.33;65.34;100306.83;126528;1092;22848;-77
2021/06/19 05:28:57;;;;;;;16.47;9.17;;;;;;;22.47;65.46;100313.95;126610;1093;27291;-77
2021/06/19 05:31:30;;;;;;;18.33;8.78;;;;;;;22.64;65.27;100316.35;126463;1092;22761;-77
2021/06/19 05:34:01;;;;;;;16.50;8.75;;;;;;;22.79;64.53;100305.78;126589;1093;22813;-77
2021/06/19 05:36:33;;;;;;;20.28;9.15;;;;;;;22.96;64.71;100308.13;126527;1092;22741;-77
2021/06/19 05:39:07;;;;;;;19.45;9.53;;;;;;;23.10;64.15;100313.11;126612;1093;27338;-77
2021/06/19 05:41:39;;;;;;;17.10;9.83;;;;;;;23.19;63.56;100317.52;126539;1093;22764;-77
2021/06/19 05:44:10;;;;;;;18.75;10.03;;;;;;;23.25;63.71;100318.09;126703;1093;22992;-77
2021/06/19 05:46:42;;;;;;;13.93;7.70;;;;;;;23.36;63.75;100317.75;126619;1093;24321;-77
2021/06/19 05:49:15;;;;;;;20.55;10.35;;;;;;;23.45;63.27;100308.66;126603;1092;27306;-77
2021/06/19 05:51:46;;;;;;;18.75;9.13;;;;;;;23.54;63.05;100307.34;126544;1093;23200;-77
2021/06/19 05:54:19;;;;;;;16.07;9.27;;;;;;;23.70;62.87;100314.58;126569;1093;22764;-76
2021/06/19 05:56:50;;;;;;;15.35;7.75;;;;;;;23.83;62.84;100320.11;126565;1093;26350;-77
2021/06/19 05:59:24;;;;;;;16.60;8.05;;;;;;;23.92;62.08;100316.66;126596;1093;26327;-77
2021/06/19 06:01:55;;;;;;;24.13;9.55;;;;;;;23.99;61.59;100310.21;126636;1093;22816;-77
2021/06/19 06:04:26;;;;;;;16.15;7.75;;;;;;;24.08;61.37;100323.94;126684;1092;22736;-77
2021/06/19 06:06:58;;;;;;;17.23;8.07;;;;;;;24.12;61.43;100320.69;126470;1092;22791;-77
2021/06/19 06:09:31;;;;;;;18.98;8.58;;;;;;;24.27;61.42;100321.42;126516;1092;26353;-77
2021/06/19 06:12:02;;;;;;;16.67;8.80;;;;;;;24.38;60.79;100317.41;126533;1093;22760;-76
2021/06/19 06:14:34;;;;;;;16.93;8.68;;;;;;;24.46;60.44;100321.00;126440;1092;22787;-77
2021/06/19 06:17:06;;;;;;;16.80;8.53;;;;;;;24.50;60.38;100327.11;126497;1092;22770;-77
2021/06/19 06:19:38;;;;;;;14.88;8.00;;;;;;;24.63;60.44;100321.92;126467;1093;25871;-77
2021/06/19 06:22:11;;;;;;;15.23;8.25;;;;;;;24.73;60.08;100322.87;126547;1093;22735;-76
2021/06/19 06:24:42;;;;;;;17.68;8.55;;;;;;;24.81;59.89;100322.83;126538;1093;22818;-75
2021/06/19 06:27:13;;;;;;;16.75;8.63;;;;;;;24.89;59.61;100312.89;126519;1093;23004;-77
2021/06/19 06:29:45;;;;;;;21.03;9.68;;;;;;;25.00;59.39;100308.09;126509;1093;22785;-76
2021/06/19 06:32:17;;;;;;;15.70;7.60;;;;;;;25.08;59.33;100309.58;126545;1093;22798;-76
2021/06/19 06:34:48;;;;;;;14.97;8.00;;;;;;;25.20;58.96;100310.64;126514;1093;24586;-77
2021/06/19 06:37:20;;;;;;;17.58;7.00;;;;;;;25.26;58.87;100305.49;126319;1092;27209;-77
2021/06/19 06:39:52;;;;;;;14.00;7.77;;;;;;;25.37;58.96;100309.98;126486;1093;25945;-76
2021/06/19 06:42:23;;;;;;;20.05;8.75;;;;;;;25.44;58.45;100307.12;126586;1092;24451;-76
2021/06/19 06:44:54;;;;;;;13.03;7.40;;;;;;;25.47;58.23;100299.48;126471;1093;22767;-76
2021/06/19 06:47:26;;;;;;;15.15;8.08;;;;;;;25.61;58.34;100295.00;126514;1093;22763;-76
2021/06/19 06:49:58;;;;;;;17.63;8.40;;;;;;;25.72;57.72;100291.65;126408;1093;25864;-76
2021/06/19 06:52:30;;;;;;;16.50;8.60;;;;;;;25.79;57.73;100296.56;126544;1093;22855;-76
2021/06/19 06:55:05;;;;;;;16.50;8.60;;;;;;;25.89;57.22;100285.98;126475;1093;22761;-76
2021/06/19 06:57:37;;;;;;;15.15;8.98;;;;;;;25.98;57.22;100279.63;126451;1093;25980;-76
2021/06/19 07:00:10;;;;;;;16.60;8.40;;;;;;;26.04;57.36;100282.99;126891;1093;22771;-75
2021/06/19 07:02:43;;;;;;;18.10;8.47;;;;;;;26.16;57.12;100283.28;126891;1093;22791;-76
2021/06/19 07:05:15;;;;;;;15.88;7.85;;;;;;;26.21;56.88;100288.01;126479;1093;22813;-77
2021/06/19 07:07:47;;;;;;;15.45;8.05;;;;;;;26.28;56.44;100285.06;126519;1093;25977;-76
2021/06/19 07:10:18;;;;;;;14.25;7.53;;;;;;;26.35;56.14;100284.23;126564;1093;22782;-77
2021/06/19 07:12:50;;;;;;;17.05;8.55;;;;;;;26.42;56.20;100291.23;126703;1093;22827;-77
2021/06/19 07:15:21;;;;;;;16.13;7.98;;;;;;;26.51;56.20;100290.53;126561;1093;22824;-77
2021/06/19 07:17:52;;;;;;;18.35;8.70;;;;;;;26.62;56.25;100289.27;126508;1093;26347;-77
2021/06/19 07:20:27;;;;;;;16.08;8.80;;;;;;;26.72;55.33;100287.27;126611;1093;22796;-77
2021/06/19 07:22:59;;;;;;;16.20;8.55;;;;;;;26.78;55.26;100293.49;126614;1093;27214;-77
2021/06/19 07:25:30;;;;;;;18.63;8.50;;;;;;;26.83;54.77;100289.63;126631;1092;22779;-77
2021/06/19 07:28:01;;;;;;;17.05;8.60;;;;;;;26.83;54.95;100278.16;126587;1092;22844;-77
2021/06/19 07:30:33;;;;;;;18.33;8.40;;;;;;;26.87;54.67;100275.63;126641;1093;27214;-77
2021/06/19 07:33:05;;;;;;;15.93;8.53;;;;;;;26.96;54.92;100269.95;126691;1093;25865;-77
2021/06/19 07:35:37;;;;;;;18.65;9.80;;;;;;;27.04;54.67;100269.87;126608;1093;22828;-77
2021/06/19 07:38:08;;;;;;;17.25;8.48;;;;;;;27.12;54.57;100270.52;126659;1092;22876;-77
2021/06/19 07:40:39;;;;;;;19.30;9.50;;;;;;;27.22;54.53;100265.59;126623;1092;24157;-77
2021/06/19 07:43:11;;;;;;;15.13;8.38;;;;;;;27.32;53.90;100277.09;126599;1092;22792;-77
2021/06/19 07:45:45;;;;;;;17.43;8.07;;;;;;;27.39;54.16;100268.42;126626;1093;23746;-77
2021/06/19 07:48:16;;;;;;;13.90;8.45;;;;;;;27.46;53.47;100264.67;126612;1093;24499;-77
2021/06/19 07:50:48;;;;;;;17.00;9.03;;;;;;;27.52;53.60;100270.88;126657;1092;22841;-76
2021/06/19 07:53:20;;;;;;;16.60;8.30;;;;;;;27.56;53.27;100259.72;126605;1092;23504;-77
2021/06/19 07:55:52;;;;;;;16.08;7.83;;;;;;;27.60;53.08;100260.07;126595;1093;25874;-77
2021/06/19 07:58:23;;;;;;;17.43;9.28;;;;;;;27.69;53.29;100270.03;126441;1092;22796;-77
2021/06/19 08:00:54;;;;;;;19.15;9.03;;;;;;;27.77;53.15;100265.69;126671;1093;22784;-78
2021/06/19 08:03:25;;;;;;;17.23;8.53;;;;;;;27.86;52.83;100262.10;126588;1093;22791;-77
2021/06/19 08:05:57;;;;;;;17.33;10.08;;;;;;;27.86;52.37;100264.97;126649;1093;22791;-77
2021/06/19 08:08:28;;;;;;;16.78;8.98;;;;;;;27.78;52.38;100264.34;126625;1093;27727;-77
2021/06/19 08:11:00;;;;;;;18.43;9.70;;;;;;;27.82;52.47;100263.89;126633;1093;25696;-77
2021/06/19 08:13:31;;;;;;;17.80;9.23;;;;;;;27.89;52.56;100271.63;126624;1092;22799;-77
2021/06/19 08:16:06;;;;;;;16.05;9.45;;;;;;;27.89;52.19;100263.75;126613;1093;23520;-78
2021/06/19 08:18:37;;;;;;;19.43;8.77;;;;;;;27.99;51.85;100270.33;126632;1092;22784;-78
2021/06/19 08:21:08;;;;;;;16.60;7.43;;;;;;;28.08;51.72;100268.08;126908;1093;22741;-77
2021/06/19 08:23:40;;;;;;;15.33;7.10;;;;;;;28.16;51.49;100268.69;126645;1093;22839;-76
2021/06/19 08:26:11;;;;;;;16.08;8.15;;;;;;;28.24;50.74;100275.80;126873;1093;22905;-75
2021/06/19 08:28:42;;;;;;;16.13;7.68;;;;;;;28.20;50.89;100268.99;126615;1093;26276;-79
2021/06/19 08:31:13;;;;;;;15.90;8.38;;;;;;;28.27;51.03;100263.09;126584;1093;22755;-74
2021/06/19 08:33:45;;;;;;;15.08;8.78;;;;;;;28.34;51.34;100267.95;126554;1093;22743;-75
2021/06/19 08:36:16;;;;;;;18.55;8.93;;;;;;;28.46;51.17;100273.84;126569;1093;22785;-74
2021/06/19 08:38:51;;;;;;;17.65;9.08;;;;;;;28.55;50.74;100273.09;126557;1093;22785;-76
2021/06/19 08:41:22;;;;;;;18.73;9.50;;;;;;;28.56;50.51;100274.63;126582;1093;22919;-74
2021/06/19 08:43:54;;;;;;;17.70;8.50;;;;;;;28.58;50.64;100272.66;126490;1093;22848;-76
2021/06/19 08:46:26;;;;;;;16.48;7.65;;;;;;;28.65;50.08;100268.89;126508;1093;22842;-75
2021/06/19 08:49:01;;;;;;;16.80;8.15;;;;;;;28.74;49.80;100270.25;126549;1093;22852;-77
2021/06/19 08:51:34;;;;;;;17.73;7.60;;;;;;;28.87;50.03;100271.88;126479;1093;26252;-75
2021/06/19 08:54:05;;;;;;;17.23;8.70;;;;;;;28.99;50.14;100273.52;126495;1093;22932;-75
2021/06/19 08:56:36;;;;;;;15.93;8.73;;;;;;;29.06;49.48;100255.36;126559;1093;23047;-76
2021/06/19 08:59:09;;;;;;;15.68;7.88;;;;;;;29.09;49.31;100259.14;126578;1093;22855;-78
2021/06/19 09:01:40;;;;;;;16.43;7.13;;;;;;;29.22;48.98;100256.55;127007;1092;22828;-76
2021/06/19 09:04:13;;;;;;;17.03;7.98;;;;;;;29.32;48.84;100263.02;126685;1093;22982;-74
2021/06/19 09:06:45;;;;;;;17.00;7.33;;;;;;;29.41;48.65;100258.59;126655;1092;25909;-75
2021/06/19 09:09:19;;;;;;;14.43;7.00;;;;;;;29.53;48.79;100262.33;126619;1093;22782;-75
2021/06/19 09:11:52;;;;;;;12.88;6.60;;;;;;;29.63;47.90;100259.42;126691;1092;25944;-75
2021/06/19 09:14:26;;;;;;;16.73;7.38;;;;;;;29.70;48.05;100256.34;126638;1093;25957;-75
2021/06/19 09:17:05;;;;;;;16.35;7.23;;;;;;;29.79;48.14;100266.34;126592;1093;22784;-75
2021/06/19 09:19:38;;;;;;;12.25;6.68;;;;;;;29.82;47.58;100265.12;126576;1092;27621;-75
2021/06/19 09:22:15;;;;;;;13.95;6.40;;;;;;;29.87;47.52;100261.90;126688;1093;22811;-76
2021/06/19 09:24:49;;;;;;;16.47;6.17;;;;;;;29.96;47.04;100263.22;126699;1093;22801;-76
2021/06/19 09:27:37;;;;;;;10.17;5.17;;;;;;;30.04;46.70;100258.01;126492;1093;26504;-76
2021/06/19 09:30:11;;;;;;;13.45;6.95;;;;;;;30.10;46.36;100256.30;126760;1092;22901;-77
2021/06/19 09:32:48;;;;;;;12.80;5.68;;;;;;;30.17;45.77;100254.56;126596;1092;26947;-78
2021/06/19 09:35:24;;;;;;;11.20;5.00;;;;;;;30.24;45.40;100257.26;126721;1092;22927;-76
2021/06/19 09:37:58;;;;;;;9.55;4.08;;;;;;;30.34;45.48;100255.08;126573;1093;22855;-78
2021/06/19 09:40:34;;;;;;;8.68;3.60;;;;;;;30.45;45.16;100255.76;126778;1093;24454;-78
2021/06/19 09:43:11;;;;;;;9.68;4.10;;;;;;;30.53;44.37;100259.17;126810;1092;22761;-78
2021/06/19 09:45:47;;;;;;;13.78;3.45;;;;;;;30.60;43.84;100258.97;126574;1093;22858;-77
2021/06/19 09:48:30;;;;;;;10.05;3.23;;;;;;;30.68;43.59;100252.98;126775;1093;22772;-77
2021/06/19 09:51:23;;;;;;;7.57;2.70;;;;;;;30.77;42.71;100250.00;126731;1093;22841;-77
2021/06/19 09:54:06;;;;;;;10.40;2.88;;;;;;;30.83;42.30;100241.74;126554;1093;24000;-77
2021/06/19 09:56:50;;;;;;;6.88;2.48;;;;;;;30.88;41.87;100239.91;126550;1093;26283;-76
2021/06/19 09:59:33;;;;;;;11.85;2.93;;;;;;;30.93;42.13;100247.45;126553;1093;25894;-78
2021/06/19 10:02:19;;;;;;;16.23;3.60;;;;;;;30.97;41.27;100245.59;126600;1092;22917;-77
2021/06/19 10:04:56;;;;;;;7.63;2.90;;;;;;;30.99;40.96;100245.72;127761;1093;27210;-77
2021/06/19 10:07:30;;;;;;;7.18;2.45;;;;;;;31.07;40.62;100239.71;128282;1093;22759;-77
2021/06/19 10:10:06;;;;;;;7.78;2.65;;;;;;;31.14;40.72;100238.73;126422;1092;24339;-77
2021/06/19 10:12:39;;;;;;;7.37;2.60;;;;;;;31.18;40.48;100230.34;126499;1092;22788;-78
2021/06/19 10:15:14;;;;;;;5.97;2.30;;;;;;;31.22;40.68;100241.37;126555;1093;22873;-77
2021/06/19 10:17:47;;;;;;;8.08;2.60;;;;;;;31.26;40.34;100235.85;126927;1093;22885;-77
2021/06/19 10:20:23;;;;;;;7.23;2.58;;;;;;;31.31;40.25;100232.59;126610;1092;24586;-77
2021/06/19 10:23:01;;;;;;;7.73;1.93;;;;;;;31.38;38.73;100239.50;126567;1093;28110;-78
2021/06/19 10:25:32;;;;;;;4.95;1.80;;;;;;;31.46;38.88;100235.02;126607;1093;22787;-77
2021/06/19 10:28:08;;;;;;;5.63;1.90;;;;;;;31.54;38.72;100228.98;126591;1093;24027;-77
2021/06/19 10:30:42;;;;;;;7.38;2.30;;;;;;;31.57;38.91;100216.96;126585;1093;23414;-78
2021/06/19 10:33:31;;;;;;;8.85;2.53;;;;;;;31.62;38.77;100223.71;126502;1092;22864;-78
2021/06/19 10:36:06;;;;;;;6.45;2.80;;;;;;;31.65;38.44;100219.58;126607;1093;25919;-77
2021/06/19 10:38:53;;;;;;;7.00;2.27;;;;;;;31.69;38.59;100216.94;126562;1093;22849;-77
2021/06/19 10:41:45;;;;;;;6.78;2.55;;;;;;;31.75;38.63;100218.07;126559;1093;22870;-76
2021/06/19 10:44:36;;;;;;;7.85;2.60;;;;;;;31.79;38.53;100206.77;126508;1093;23003;-77
2021/06/19 10:47:10;;;;;;;8.60;2.98;;;;;;;31.86;38.60;100211.53;126632;1093;22821;-77
2021/06/19 10:49:45;;;;;;;5.85;2.28;;;;;;;31.94;38.00;100208.41;126562;1093;22874;-77
2021/06/19 10:52:38;;;;;;;9.70;3.05;;;;;;;31.96;37.54;100208.52;126531;1093;24627;-77
2021/06/19 10:55:29;;;;;;;11.97;3.50;;;;;;;31.96;37.83;100196.97;126615;1093;22803;-77
2021/06/19 10:58:17;;;;;;;6.88;2.48;;;;;;;32.01;37.72;100195.08;126710;1093;26271;-76
2021/06/19 11:00:58;;;;;;;7.87;2.87;;;;;;;32.06;37.48;100197.57;126335;1092;22795;-78
2021/06/19 11:03:48;;;;;;;10.28;3.28;;;;;;;32.08;37.66;100188.27;126674;1093;22967;-79
2021/06/19 11:06:27;;;;;;;9.20;2.85;;;;;;;32.10;37.03;100185.50;126799;1093;22831;-77
2021/06/19 11:09:15;;;;;;;6.68;2.50;;;;;;;32.14;37.08;100191.51;126694;1093;22871;-78
2021/06/19 11:11:54;;;;;;;7.70;3.10;;;;;;;32.18;37.41;100183.84;126820;1093;22786;-79
2021/06/19 11:15:09;;;;;;;9.78;2.78;;;;;;;32.21;36.82;100171.03;127649;1093;23592;-77
2021/06/19 11:17:48;;;;;;;10.53;3.10;;;;;;;32.25;37.05;100176.28;127127;1093;23193;-77
2021/06/19 11:20:30;;;;;;;8.28;3.85;;;;;;;32.33;36.90;100177.51;127000;1092;22788;-78
2021/06/19 11:23:07;;;;;;;9.78;4.08;;;;;;;32.38;37.08;100178.50;129846;1093;22577;-78
2021/06/19 11:28:36;;;;;;;9.80;3.97;;;;;;;32.50;37.42;100174.20;129864;1093;23896;-79
2021/06/19 11:31:20;;;;;;;7.80;3.83;;;;;;;32.54;37.57;100177.32;129819;1093;23863;-76
2021/06/19 11:33:54;;;;;;;15.23;3.80;;;;;;;32.58;36.99;100174.66;129997;1092;22548;-76
2021/06/19 11:36:58;;;;;;;9.63;3.28;;;;;;;32.54;36.43;100168.65;129809;1092;22549;-78
2021/06/19 11:39:36;;;;;;;9.55;3.20;;;;;;;32.56;35.87;100160.09;129837;1092;22920;-77